CheckWX is a tool to help pilots better visualize weather data.  It is not intended as a substitute for an official pre-flight weather briefing.

18:31:48 UTC

FKKN METAR
N'Gaoundéré Airport
N'Gaoundéré, Cameroon
Current

2 hours ago

FKKN 221700Z 34004KT CAVOK 31/09 Q1014
Observed
Feb-22 @ 17:00 UTC
Wind
  • 340° at 4 KTS
Visibility
10,000+ meters
Flight Rules
VFR
Cloud Levels
  • Clear skies
Temperature
31°C / 88°F
Dewpoint
C / 48°F
Humidity
25%
Altimeter
29.94" Hg
Pressure
1013.92 hPa
Previous

3 hours ago

FKKN 221600Z 36008KT CAVOK 33/08 Q1013
Observed
Feb-22 @ 16:00 UTC
Wind
  • 360° at 8 KTS
Visibility
10,000+ meters
Flight Rules
VFR
Cloud Levels
  • Clear skies
Temperature
33°C / 91°F
Dewpoint
C / 46°F
Humidity
21%
Altimeter
29.91" Hg
Pressure
1012.92 hPa
Previous

4 hours ago

FKKN 221500Z 32008KT CAVOK 34/08 Q1013
Observed
Feb-22 @ 15:00 UTC
Wind
  • 320° at 8 KTS
Visibility
10,000+ meters
Flight Rules
VFR
Cloud Levels
  • Clear skies
Temperature
34°C / 93°F
Dewpoint
C / 46°F
Humidity
20%
Altimeter
29.91" Hg
Pressure
1012.92 hPa